createdAt,value
2023-10-08T00:01:57.135Z,96.67
2023-10-08T00:04:27.911Z,97.09
2023-10-08T00:06:58.230Z,97.07
2023-10-08T00:09:28.532Z,97.47
2023-10-08T00:11:59.281Z,97.35
2023-10-08T00:14:33.135Z,98.00
2023-10-08T00:17:03.900Z,97.99
2023-10-08T00:19:38.202Z,97.87
2023-10-08T00:22:09.251Z,97.43
2023-10-08T00:24:42.431Z,97.38
2023-10-08T00:27:16.191Z,97.71
2023-10-08T00:29:49.191Z,97.70
2023-10-08T00:32:19.724Z,98.28
2023-10-08T00:34:50.496Z,98.57
2023-10-08T00:37:25.104Z,98.14
2023-10-08T00:39:58.335Z,98.24
2023-10-08T00:42:30.065Z,98.62
2023-10-08T00:45:06.339Z,98.56
2023-10-08T00:47:44.492Z,99.05
2023-10-08T00:50:21.607Z,99.14
2023-10-08T00:53:00.895Z,98.76
2023-10-08T00:55:35.348Z,98.71
2023-10-08T00:58:10.928Z,99.08
2023-10-08T01:00:45.095Z,99.04
2023-10-08T01:03:20.873Z,99.78
2023-10-08T01:05:51.899Z,99.69
2023-10-08T01:08:24.707Z,99.55
2023-10-08T01:11:02.772Z,99.85
2023-10-08T01:13:45.991Z,99.96
2023-10-08T01:16:19.872Z,99.79
2023-10-08T01:18:51.869Z,99.62
2023-10-08T01:21:35.754Z,99.64
2023-10-08T01:24:09.988Z,99.55
2023-10-08T01:26:41.017Z,100.00
2023-10-08T01:29:20.759Z,99.54
2023-10-08T01:31:54.597Z,100.00
2023-10-08T01:34:29.016Z,99.85
2023-10-08T01:37:03.122Z,100.00
2023-10-08T01:39:36.361Z,100.00
2023-10-08T01:42:07.253Z,100.00
2023-10-08T01:44:37.829Z,100.00
2023-10-08T01:47:08.587Z,100.00
2023-10-08T01:49:41.000Z,100.00
2023-10-08T01:52:15.453Z,100.00
2023-10-08T01:54:49.314Z,100.00
2023-10-08T01:57:20.153Z,100.00
2023-10-08T01:59:50.497Z,100.00
2023-10-08T02:02:21.323Z,100.00
2023-10-08T02:04:51.595Z,100.00
2023-10-08T02:07:22.497Z,100.00
2023-10-08T02:09:55.462Z,100.00
2023-10-08T02:12:26.806Z,100.00
2023-10-08T02:14:57.864Z,100.00
2023-10-08T02:17:29.762Z,100.00
2023-10-08T02:20:00.251Z,100.00
2023-10-08T02:22:30.748Z,100.00
2023-10-08T02:25:04.987Z,100.00
2023-10-08T02:27:35.573Z,100.00
2023-10-08T02:30:07.530Z,100.00
2023-10-08T02:32:38.233Z,100.00
2023-10-08T02:35:10.653Z,100.00
2023-10-08T02:37:41.142Z,100.00
2023-10-08T02:40:20.893Z,100.00
2023-10-08T02:42:52.785Z,100.00
2023-10-08T02:45:23.309Z,100.00
2023-10-08T02:47:54.280Z,100.00
2023-10-08T02:50:24.756Z,100.00
2023-10-08T02:52:55.341Z,100.00
2023-10-08T02:55:35.728Z,100.00
2023-10-08T02:58:07.510Z,100.00
2023-10-08T03:00:37.910Z,100.00
2023-10-08T03:03:17.129Z,100.00
2023-10-08T03:05:50.512Z,100.00
2023-10-08T03:08:24.364Z,100.00
2023-10-08T03:11:03.693Z,100.00
2023-10-08T03:13:39.583Z,100.00
2023-10-08T03:16:14.772Z,100.00
2023-10-08T03:18:46.712Z,100.00
2023-10-08T03:21:45.414Z,100.00
2023-10-08T03:24:31.057Z,100.00
2023-10-08T03:27:14.191Z,100.00
2023-10-08T03:29:44.896Z,100.00
2023-10-08T03:32:17.669Z,100.00
2023-10-08T03:34:55.862Z,100.00
2023-10-08T03:37:42.613Z,100.00
2023-10-08T03:40:26.740Z,100.00
2023-10-08T03:43:00.580Z,100.00
2023-10-08T03:45:43.310Z,100.00
2023-10-08T03:48:16.958Z,100.00
2023-10-08T03:50:53.991Z,100.00
2023-10-08T03:53:24.474Z,100.00
2023-10-08T03:55:56.824Z,100.00
2023-10-08T03:58:33.643Z,100.00
2023-10-08T04:01:09.842Z,100.00
2023-10-08T04:03:59.362Z,100.00
2023-10-08T04:06:39.372Z,100.00
2023-10-08T04:09:18.016Z,100.00
2023-10-08T04:12:00.163Z,100.00
2023-10-08T04:14:35.944Z,100.00
2023-10-08T04:17:06.481Z,100.00
2023-10-08T04:19:36.765Z,100.00
2023-10-08T04:22:16.166Z,100.00
2023-10-08T04:24:47.022Z,100.00
2023-10-08T04:27:19.610Z,100.00
2023-10-08T04:29:52.704Z,100.00
2023-10-08T04:32:26.729Z,100.00
2023-10-08T04:35:02.036Z,100.00
2023-10-08T04:37:34.715Z,100.00
2023-10-08T04:40:17.174Z,100.00
2023-10-08T04:42:49.636Z,100.00
2023-10-08T04:45:27.770Z,100.00
2023-10-08T04:48:00.326Z,100.00
2023-10-08T04:50:32.094Z,100.00
2023-10-08T04:53:09.225Z,100.00
2023-10-08T04:55:49.740Z,100.00
2023-10-08T04:58:34.315Z,100.00
2023-10-08T05:01:21.055Z,100.00
2023-10-08T05:04:08.971Z,100.00
2023-10-08T05:06:51.872Z,100.00
2023-10-08T05:09:40.162Z,100.00
2023-10-08T05:12:31.742Z,100.00
2023-10-08T05:15:23.120Z,100.00
2023-10-08T05:18:10.316Z,100.00
2023-10-08T05:21:02.994Z,100.00
2023-10-08T05:23:45.715Z,100.00
2023-10-08T05:26:22.503Z,100.00
2023-10-08T05:29:02.718Z,100.00
2023-10-08T05:31:48.612Z,100.00
2023-10-08T05:34:25.085Z,100.00
2023-10-08T05:37:08.133Z,100.00
2023-10-08T05:39:48.330Z,100.00
2023-10-08T05:42:18.274Z,100.00
2023-10-08T05:45:10.035Z,100.00
2023-10-08T05:47:42.995Z,100.00
2023-10-08T05:50:28.400Z,100.00
2023-10-08T05:53:16.731Z,100.00
2023-10-08T05:55:49.019Z,100.00
2023-10-08T05:58:26.150Z,100.00
2023-10-08T06:01:08.664Z,100.00
2023-10-08T06:04:01.914Z,100.00
2023-10-08T06:06:38.988Z,100.00
2023-10-08T06:09:22.693Z,100.00
2023-10-08T06:12:08.310Z,100.00
2023-10-08T06:14:51.555Z,100.00
2023-10-08T06:17:35.974Z,100.00
2023-10-08T06:20:11.146Z,100.00
2023-10-08T06:22:43.725Z,100.00
2023-10-08T06:25:24.599Z,100.00
2023-10-08T06:27:59.078Z,100.00
2023-10-08T06:30:36.497Z,100.00
2023-10-08T06:33:08.034Z,100.00
2023-10-08T06:35:38.603Z,100.00
2023-10-08T06:38:11.729Z,100.00
2023-10-08T06:40:42.482Z,100.00
2023-10-08T06:43:18.310Z,100.00
2023-10-08T06:45:53.588Z,100.00
2023-10-08T06:48:25.821Z,100.00
2023-10-08T06:50:59.899Z,100.00
2023-10-08T06:53:33.186Z,100.00
2023-10-08T06:56:05.764Z,100.00
2023-10-08T06:58:36.485Z,100.00
2023-10-08T07:01:10.246Z,100.00
2023-10-08T07:03:42.228Z,100.00
2023-10-08T07:06:27.207Z,100.00
2023-10-08T07:09:00.927Z,100.00
2023-10-08T07:11:36.367Z,100.00
2023-10-08T07:14:06.971Z,100.00
2023-10-08T07:16:37.427Z,100.00
2023-10-08T07:19:17.402Z,100.00
2023-10-08T07:21:48.740Z,100.00
2023-10-08T07:24:23.178Z,100.00
2023-10-08T07:26:57.194Z,100.00
2023-10-08T07:29:27.638Z,100.00
2023-10-08T07:31:58.045Z,100.00
2023-10-08T07:34:33.031Z,100.00
2023-10-08T07:37:03.443Z,100.00
2023-10-08T07:39:48.289Z,100.00
2023-10-08T07:42:19.040Z,100.00
2023-10-08T07:44:51.661Z,100.00
2023-10-08T07:47:22.898Z,100.00
2023-10-08T07:49:53.606Z,100.00
2023-10-08T07:52:24.536Z,100.00
2023-10-08T07:54:57.409Z,100.00
2023-10-08T07:57:30.167Z,100.00
2023-10-08T08:00:19.458Z,100.00
2023-10-08T08:02:50.497Z,100.00
2023-10-08T08:05:22.030Z,100.00
2023-10-08T08:07:53.699Z,100.00
2023-10-08T08:10:27.449Z,100.00
2023-10-08T08:12:58.397Z,100.00
2023-10-08T08:15:30.757Z,100.00
2023-10-08T08:18:01.738Z,100.00
2023-10-08T08:20:40.452Z,100.00
2023-10-08T08:23:10.854Z,100.00
2023-10-08T08:26:08.267Z,100.00
2023-10-08T08:28:38.556Z,100.00
2023-10-08T08:31:14.769Z,100.00
2023-10-08T08:33:58.257Z,100.00
2023-10-08T08:36:29.031Z,100.00
2023-10-08T08:39:00.281Z,100.00
2023-10-08T08:41:34.742Z,100.00
2023-10-08T08:44:08.191Z,100.00
2023-10-08T08:46:41.421Z,100.00
2023-10-08T08:49:14.175Z,100.00
2023-10-08T08:51:49.251Z,100.00
2023-10-08T08:54:19.366Z,100.00
2023-10-08T08:56:53.820Z,100.00
2023-10-08T08:59:24.533Z,100.00
2023-10-08T09:01:55.395Z,100.00
2023-10-08T09:04:34.232Z,100.00
2023-10-08T09:07:05.727Z,100.00
2023-10-08T09:09:39.367Z,100.00
2023-10-08T09:12:13.097Z,100.00
2023-10-08T09:14:46.411Z,100.00
2023-10-08T09:17:18.345Z,100.00
2023-10-08T09:19:51.688Z,100.00
2023-10-08T09:22:23.047Z,100.00
2023-10-08T09:24:53.797Z,100.00
2023-10-08T09:27:32.149Z,100.00
2023-10-08T09:30:09.352Z,100.00
2023-10-08T09:32:44.028Z,100.00
2023-10-08T09:35:17.329Z,99.60
2023-10-08T09:37:49.207Z,99.09
2023-10-08T09:40:22.763Z,97.66
2023-10-08T09:42:56.890Z,97.15
2023-10-08T09:45:27.342Z,96.83
2023-10-08T09:47:59.460Z,96.52
2023-10-08T09:50:33.770Z,95.14
2023-10-08T09:53:18.000Z,94.53
2023-10-08T09:55:56.917Z,94.46
2023-10-08T09:58:31.777Z,93.22
2023-10-08T10:01:02.994Z,93.09
2023-10-08T10:03:35.915Z,93.12
2023-10-08T10:06:11.073Z,92.86
2023-10-08T10:08:41.593Z,92.06
2023-10-08T10:11:12.133Z,92.41
2023-10-08T10:13:50.355Z,91.58
2023-10-08T10:16:24.786Z,92.42
2023-10-08T10:18:58.495Z,93.04
2023-10-08T10:21:38.758Z,92.82
2023-10-08T10:24:26.556Z,92.98
2023-10-08T10:27:15.911Z,92.74
2023-10-08T10:29:49.625Z,92.17
2023-10-08T10:32:20.614Z,92.29
2023-10-08T10:34:53.388Z,92.28
2023-10-08T10:37:25.251Z,91.98
2023-10-08T10:40:01.307Z,92.11
2023-10-08T10:42:32.325Z,91.92
2023-10-08T10:45:10.644Z,91.32
2023-10-08T10:47:47.936Z,90.75
2023-10-08T10:50:28.055Z,90.39
2023-10-08T10:52:58.853Z,89.88
2023-10-08T10:55:33.313Z,89.28
2023-10-08T10:58:17.245Z,89.09
2023-10-08T11:00:58.018Z,88.44
2023-10-08T11:03:29.764Z,88.50
2023-10-08T11:06:16.611Z,86.53
2023-10-08T11:08:48.203Z,87.03
2023-10-08T11:11:21.213Z,87.22
2023-10-08T11:13:55.654Z,87.08
2023-10-08T11:16:33.152Z,87.44
2023-10-08T11:19:08.163Z,87.36
2023-10-08T11:21:52.838Z,86.43
2023-10-08T11:24:34.991Z,86.00
2023-10-08T11:27:17.353Z,85.05
2023-10-08T11:29:58.059Z,84.96
2023-10-08T11:32:34.300Z,84.48
2023-10-08T11:35:17.634Z,83.60
2023-10-08T11:37:53.083Z,82.95
2023-10-08T11:40:30.425Z,82.02
2023-10-08T11:43:04.832Z,81.17
2023-10-08T11:45:40.177Z,80.17
2023-10-08T11:48:18.988Z,80.34
2023-10-08T11:50:52.201Z,78.04
2023-10-08T11:53:23.867Z,78.57
2023-10-08T11:55:57.981Z,79.33
2023-10-08T11:58:38.986Z,78.11
2023-10-08T12:01:12.612Z,78.72
2023-10-08T12:03:47.106Z,78.98
2023-10-08T12:06:20.817Z,77.98
2023-10-08T12:08:54.998Z,75.02
2023-10-08T12:11:32.570Z,74.75
2023-10-08T12:14:04.379Z,74.24
2023-10-08T12:16:37.040Z,75.03
2023-10-08T12:19:17.150Z,75.92
2023-10-08T12:21:49.348Z,75.60
2023-10-08T12:24:21.257Z,74.81
2023-10-08T12:26:51.554Z,72.96
2023-10-08T12:29:23.275Z,72.40
2023-10-08T12:31:54.808Z,72.86
2023-10-08T12:34:31.070Z,72.90
2023-10-08T12:37:01.811Z,71.15
2023-10-08T12:39:33.058Z,71.66
2023-10-08T12:42:06.514Z,70.38
2023-10-08T12:44:38.045Z,69.98
2023-10-08T12:47:08.586Z,68.87
2023-10-08T12:49:41.768Z,68.53
2023-10-08T12:52:13.717Z,68.56
2023-10-08T12:54:46.822Z,68.17
2023-10-08T12:57:20.414Z,68.23
2023-10-08T12:59:53.295Z,68.51
2023-10-08T13:02:29.604Z,69.08
2023-10-08T13:05:03.636Z,69.24
2023-10-08T13:07:39.962Z,69.21
2023-10-08T13:10:16.069Z,68.97
2023-10-08T13:12:46.498Z,67.86
2023-10-08T13:15:17.906Z,65.31
2023-10-08T13:17:49.687Z,66.54
2023-10-08T13:20:23.100Z,67.44
2023-10-08T13:22:53.411Z,67.94
2023-10-08T13:25:24.214Z,68.45
2023-10-08T13:27:56.077Z,65.50
2023-10-08T13:30:27.965Z,65.22
2023-10-08T13:32:58.336Z,64.10
2023-10-08T13:35:31.464Z,64.57
2023-10-08T13:38:07.565Z,63.87
2023-10-08T13:40:44.712Z,64.63
2023-10-08T13:43:18.748Z,65.48
2023-10-08T13:45:49.017Z,66.76
2023-10-08T13:48:19.682Z,67.39
2023-10-08T13:50:53.263Z,68.17
2023-10-08T13:53:23.786Z,68.49
2023-10-08T13:55:54.063Z,68.59
2023-10-08T13:58:25.634Z,68.86
2023-10-08T14:00:55.970Z,69.32
2023-10-08T14:03:26.542Z,69.48
2023-10-08T14:06:03.231Z,69.95
2023-10-08T14:08:34.210Z,69.61
2023-10-08T14:11:04.539Z,69.40
2023-10-08T14:13:37.160Z,69.63
2023-10-08T14:16:10.042Z,69.47
2023-10-08T14:18:42.194Z,69.88
2023-10-08T14:21:16.578Z,69.47
2023-10-08T14:23:51.566Z,69.51
2023-10-08T14:26:23.109Z,68.34
2023-10-08T14:29:00.154Z,69.09
2023-10-08T14:31:33.646Z,69.16
2023-10-08T14:34:20.628Z,68.51
2023-10-08T14:37:06.852Z,68.81
2023-10-08T14:39:50.133Z,69.30
2023-10-08T14:42:32.809Z,69.47
2023-10-08T14:45:03.804Z,69.76
2023-10-08T14:47:34.379Z,69.43
2023-10-08T14:50:06.481Z,69.90
2023-10-08T14:52:39.383Z,69.80
2023-10-08T14:55:11.081Z,69.43
2023-10-08T14:57:41.417Z,68.99
2023-10-08T15:00:14.361Z,68.43
2023-10-08T15:02:44.722Z,68.31
2023-10-08T15:05:15.586Z,68.73
2023-10-08T15:07:48.446Z,69.09
2023-10-08T15:10:18.945Z,68.78
2023-10-08T15:12:52.489Z,69.41
2023-10-08T15:15:26.616Z,70.07
2023-10-08T15:17:57.481Z,69.55
2023-10-08T15:20:28.166Z,69.31
2023-10-08T15:23:01.060Z,69.87
2023-10-08T15:25:31.566Z,69.85
2023-10-08T15:28:02.773Z,70.02
2023-10-08T15:30:34.150Z,70.28
2023-10-08T15:33:04.680Z,70.58
2023-10-08T15:35:35.209Z,70.44
2023-10-08T15:38:08.507Z,71.10
2023-10-08T15:40:38.804Z,71.17
2023-10-08T15:43:09.206Z,71.09
2023-10-08T15:45:39.565Z,71.30
2023-10-08T15:48:11.305Z,71.34
2023-10-08T15:50:41.822Z,71.35
2023-10-08T15:53:15.109Z,70.96
2023-10-08T15:55:46.066Z,71.31
2023-10-08T15:58:16.332Z,71.60
2023-10-08T16:00:46.677Z,71.71
2023-10-08T16:03:18.972Z,71.58
2023-10-08T16:05:50.096Z,71.82
2023-10-08T16:08:22.969Z,72.23
2023-10-08T16:10:53.263Z,72.52
2023-10-08T16:13:24.360Z,72.28
2023-10-08T16:15:54.787Z,72.82
2023-10-08T16:18:25.147Z,73.25
2023-10-08T16:20:56.142Z,73.58
2023-10-08T16:23:30.712Z,73.78
2023-10-08T16:26:01.578Z,74.17
2023-10-08T16:28:32.080Z,74.43
2023-10-08T16:31:05.871Z,74.43
2023-10-08T16:33:36.338Z,74.72
2023-10-08T16:36:11.178Z,74.89
2023-10-08T16:38:44.220Z,74.77
2023-10-08T16:41:14.545Z,74.93
2023-10-08T16:43:44.819Z,75.13
2023-10-08T16:46:15.450Z,74.94
2023-10-08T16:48:46.684Z,74.96
2023-10-08T16:51:18.650Z,75.08
2023-10-08T16:53:51.629Z,75.47
2023-10-08T16:56:23.032Z,75.66
2023-10-08T16:58:54.493Z,76.32
2023-10-08T17:01:24.958Z,76.95
2023-10-08T17:03:56.702Z,77.20
2023-10-08T17:06:27.276Z,77.63
2023-10-08T17:09:00.212Z,78.02
2023-10-08T17:11:30.971Z,78.40
2023-10-08T17:14:01.261Z,78.72
2023-10-08T17:16:31.562Z,78.98
2023-10-08T17:19:01.782Z,79.18
2023-10-08T17:21:32.113Z,79.69
2023-10-08T17:24:08.190Z,80.12
2023-10-08T17:26:39.587Z,80.53
2023-10-08T17:29:10.427Z,81.03
2023-10-08T17:31:41.186Z,81.37
2023-10-08T17:34:11.571Z,81.65
2023-10-08T17:36:41.918Z,81.87
2023-10-08T17:39:18.218Z,82.47
2023-10-08T17:41:53.349Z,82.67
2023-10-08T17:44:25.682Z,82.92
2023-10-08T17:46:56.139Z,83.16
2023-10-08T17:49:26.531Z,83.28
2023-10-08T17:51:56.842Z,83.53
2023-10-08T17:54:34.302Z,83.71
2023-10-08T17:57:05.768Z,83.93
2023-10-08T17:59:36.101Z,84.22
2023-10-08T18:02:07.846Z,84.53
2023-10-08T18:04:39.436Z,84.81
2023-10-08T18:07:09.924Z,85.09
2023-10-08T18:09:44.212Z,85.45
2023-10-08T18:12:15.563Z,85.67
2023-10-08T18:14:45.908Z,86.30
2023-10-08T18:17:16.757Z,86.94
2023-10-08T18:19:47.357Z,87.51
2023-10-08T18:22:18.531Z,87.72
2023-10-08T18:24:51.653Z,87.93
2023-10-08T18:27:22.253Z,88.81
2023-10-08T18:29:54.512Z,89.03
2023-10-08T18:32:24.852Z,89.32
2023-10-08T18:34:55.171Z,89.89
2023-10-08T18:37:25.610Z,90.71
2023-10-08T18:39:58.459Z,90.75
2023-10-08T18:42:29.049Z,91.52
2023-10-08T18:44:59.905Z,91.78
2023-10-08T18:47:34.711Z,92.28
2023-10-08T18:50:15.059Z,91.97
2023-10-08T18:52:48.181Z,92.41
2023-10-08T18:55:22.184Z,93.08
2023-10-08T18:57:54.137Z,93.56
2023-10-08T19:00:27.984Z,93.68
2023-10-08T19:02:59.762Z,94.11
2023-10-08T19:05:30.274Z,94.42
2023-10-08T19:08:00.615Z,94.67
2023-10-08T19:10:33.596Z,94.46
2023-10-08T19:13:06.055Z,94.81
2023-10-08T19:15:36.504Z,94.85
2023-10-08T19:18:08.498Z,94.57
2023-10-08T19:20:40.765Z,95.32
2023-10-08T19:23:11.262Z,96.17
2023-10-08T19:25:44.097Z,95.97
2023-10-08T19:28:16.628Z,96.35
2023-10-08T19:30:47.215Z,96.63
2023-10-08T19:33:17.608Z,96.77
2023-10-08T19:35:48.716Z,97.48
2023-10-08T19:38:19.157Z,97.68
2023-10-08T19:40:52.113Z,97.47
2023-10-08T19:43:22.732Z,97.45
2023-10-08T19:45:53.096Z,97.75
2023-10-08T19:48:23.675Z,97.46
2023-10-08T19:50:56.804Z,97.34
2023-10-08T19:53:27.426Z,97.57
2023-10-08T19:56:00.348Z,97.08
2023-10-08T19:58:30.851Z,97.31
2023-10-08T20:01:01.207Z,97.22
2023-10-08T20:03:31.875Z,97.53
2023-10-08T20:06:02.644Z,97.26
2023-10-08T20:08:32.981Z,97.48
2023-10-08T20:11:06.635Z,97.38
2023-10-08T20:13:37.137Z,97.36
2023-10-08T20:16:09.212Z,97.11
2023-10-08T20:18:40.108Z,97.33
2023-10-08T20:21:10.618Z,97.46
2023-10-08T20:23:41.090Z,97.30
2023-10-08T20:26:23.715Z,97.02
2023-10-08T20:28:59.147Z,96.92
2023-10-08T20:31:30.176Z,97.20
2023-10-08T20:34:01.417Z,96.95
2023-10-08T20:36:32.539Z,97.14
2023-10-08T20:39:03.883Z,97.29
2023-10-08T20:41:38.477Z,97.44
2023-10-08T20:44:09.376Z,97.50
2023-10-08T20:46:41.338Z,97.59
2023-10-08T20:49:11.753Z,97.54
2023-10-08T20:51:42.443Z,97.87
2023-10-08T20:54:12.904Z,97.60
2023-10-08T20:56:46.005Z,97.60
2023-10-08T20:59:16.325Z,97.97
2023-10-08T21:01:48.425Z,97.95
2023-10-08T21:04:18.979Z,98.01
2023-10-08T21:06:50.869Z,98.00
2023-10-08T21:09:21.234Z,98.05
2023-10-08T21:11:54.192Z,98.04
2023-10-08T21:14:24.676Z,98.55
2023-10-08T21:16:56.404Z,98.75
2023-10-08T21:19:27.108Z,98.94
2023-10-08T21:21:58.517Z,98.38
2023-10-08T21:24:28.893Z,98.75
2023-10-08T21:27:03.233Z,98.89
2023-10-08T21:29:33.595Z,99.21
2023-10-08T21:32:03.983Z,99.34
2023-10-08T21:34:34.536Z,99.51
2023-10-08T21:37:05.742Z,99.80
2023-10-08T21:39:36.491Z,99.77
2023-10-08T21:42:09.454Z,99.74
2023-10-08T21:44:39.785Z,99.66
2023-10-08T21:47:10.128Z,99.62
2023-10-08T21:49:40.920Z,99.67
2023-10-08T21:52:11.421Z,99.64
2023-10-08T21:54:41.781Z,99.89
2023-10-08T21:57:14.741Z,99.70
2023-10-08T21:59:45.570Z,99.81
2023-10-08T22:02:15.988Z,99.84
2023-10-08T22:04:46.522Z,100.00
2023-10-08T22:07:17.761Z,99.89
2023-10-08T22:09:49.429Z,100.00
2023-10-08T22:12:25.020Z,100.00
2023-10-08T22:14:56.835Z,100.00
2023-10-08T22:17:28.276Z,100.00
2023-10-08T22:19:58.948Z,100.00
2023-10-08T22:22:30.620Z,100.00
2023-10-08T22:25:00.911Z,100.00
2023-10-08T22:27:35.036Z,100.00
2023-10-08T22:30:11.112Z,100.00
2023-10-08T22:32:42.491Z,100.00
2023-10-08T22:35:18.186Z,100.00
2023-10-08T22:38:06.436Z,100.00
2023-10-08T22:40:49.976Z,100.00
2023-10-08T22:43:24.443Z,100.00
2023-10-08T22:45:54.899Z,100.00
2023-10-08T22:48:30.643Z,100.00
2023-10-08T22:51:04.179Z,100.00
2023-10-08T22:53:37.334Z,100.00
2023-10-08T22:56:08.226Z,100.00
2023-10-08T22:58:41.669Z,100.00
2023-10-08T23:01:15.889Z,100.00
2023-10-08T23:03:48.004Z,100.00
2023-10-08T23:06:18.806Z,100.00
2023-10-08T23:08:49.643Z,100.00
2023-10-08T23:11:21.592Z,100.00
2023-10-08T23:13:54.527Z,100.00
2023-10-08T23:16:24.862Z,100.00
2023-10-08T23:18:56.711Z,100.00
2023-10-08T23:21:28.020Z,100.00
2023-10-08T23:23:58.431Z,100.00
2023-10-08T23:26:29.995Z,100.00
2023-10-08T23:29:03.059Z,100.00
2023-10-08T23:31:33.999Z,100.00
2023-10-08T23:34:06.972Z,100.00
2023-10-08T23:36:41.044Z,100.00
2023-10-08T23:39:17.886Z,100.00
2023-10-08T23:41:51.556Z,100.00
2023-10-08T23:44:31.894Z,100.00
2023-10-08T23:47:09.281Z,100.00
2023-10-08T23:49:55.236Z,100.00
2023-10-08T23:52:34.375Z,100.00
2023-10-08T23:55:06.911Z,100.00
2023-10-08T23:58:00.034Z,100.00
